Airfield :
LOGIN :

Register | Disclaimer

   EN    FR    IT 

 










Legend :    VFR   Marginal VFR   IFR   Intensive IFR   Very Intensive IFR
Visi :
Ceiling :
>= 8 km
>= 3000ft
5 to 8 km
1000 to 3000 ft
1500m to 5 km
500 to 1000 ft
800 to 1500m
200 to 500 ft
< 800m
< 200 ft
Symbols :   Thunderstorms  Fog  Heavy snow  Heavy precipitations  Wind > 20 kt
SIGMETs :     Misc.  Thunderstorms  Icing  Turbulence  Mountain Waves  Volcanic Ashes






- Airport Elevation : 400 ft
- IATA code : BNX


LQBK - Banja Luka

CURRENT METAR :
  • 261330Z 03003KT 2500 BR FEW047 06/04 Q1020 NOSIG

EXPIRED METARs :
  • 261300Z 01006KT 3000 BR FEW047 06/04 Q1020 NOSIG
  • 261230Z 34003KT 2500 BR FEW047 06/03 Q1020 NOSIG
  • 261200Z 01004KT 2500 -RA BR NSC 06/03 Q1021 NOSIG
  • 261130Z 04002KT 2000 BR FEW002 05/04 Q1021 BECMG 4000
  • 261100Z 36002KT 2000 BR FEW002 03/02 Q1021 BECMG 4000

TAF TAF LQBK
Valid from the 26 at 12:00 until the 27 at 12:00 UTC


261100Z 2612/2712 VRB02KT 5000 BR SCT010 BKN040 TX05/2712Z TNM00/2703Z
TEMPO 2612/2703 3000 -RA BR
PROB40
TEMPO 2621/2706 1200 -FZRA BR BKN005 BKN035
PROB30
TEMPO 2703/2708 0300 FZFG OVC002



MET'MAP, your aeronautical weather chart ! - Copyright ORBIFLY December 2007 - Disclaimer

ORBIFLY MET'MAP TEAM :

Programming & Development : Alexandra Zaïnal
Concept & original design : Baudouin d'Aumeries
Assistance for programming : Marc-Olivier Méhu
Technical & hardware support : Manuel Goepfert

Contact : metmap@orbifly.com




SOURCES & CREDITS :

   NOAA